sensor_id;sensor_type;location;lat;lon;timestamp;temperature;humidity
9768;DHT22;4923;52.520;13.494;2024-02-23T00:02:25;10.20;99.90
9768;DHT22;4923;52.520;13.494;2024-02-23T00:05:12;10.20;99.90
9768;DHT22;4923;52.520;13.494;2024-02-23T00:07:58;10.10;99.90
9768;DHT22;4923;52.520;13.494;2024-02-23T00:10:45;10.10;99.90
9768;DHT22;4923;52.520;13.494;2024-02-23T00:13:34;10.10;99.90
9768;DHT22;4923;52.520;13.494;2024-02-23T00:16:21;10.10;99.90
9768;DHT22;4923;52.520;13.494;2024-02-23T00:19:09;10.10;99.90
9768;DHT22;4923;52.520;13.494;2024-02-23T00:21:56;10.10;99.90
9768;DHT22;4923;52.520;13.494;2024-02-23T00:24:44;10.20;99.90
9768;DHT22;4923;52.520;13.494;2024-02-23T00:27:31;10.30;99.90
9768;DHT22;4923;52.520;13.494;2024-02-23T00:30:19;10.40;99.90
9768;DHT22;4923;52.520;13.494;2024-02-23T00:33:06;10.40;99.90
9768;DHT22;4923;52.520;13.494;2024-02-23T00:35:53;10.50;99.90
9768;DHT22;4923;52.520;13.494;2024-02-23T00:38:40;10.50;99.90
9768;DHT22;4923;52.520;13.494;2024-02-23T00:41:27;10.40;99.90
9768;DHT22;4923;52.520;13.494;2024-02-23T00:44:14;10.40;99.90
9768;DHT22;4923;52.520;13.494;2024-02-23T00:47:03;10.30;99.90
9768;DHT22;4923;52.520;13.494;2024-02-23T00:49:50;10.20;99.90
9768;DHT22;4923;52.520;13.494;2024-02-23T00:52:36;10.10;99.90
9768;DHT22;4923;52.520;13.494;2024-02-23T00:55:23;10.10;99.90
9768;DHT22;4923;52.520;13.494;2024-02-23T00:58:12;10.10;99.90
9768;DHT22;4923;52.520;13.494;2024-02-23T01:00:59;10.10;99.90
9768;DHT22;4923;52.520;13.494;2024-02-23T01:03:48;10.10;99.90
9768;DHT22;4923;52.520;13.494;2024-02-23T01:06:34;10.10;99.90
9768;DHT22;4923;52.520;13.494;2024-02-23T01:09:21;10.20;99.90
9768;DHT22;4923;52.520;13.494;2024-02-23T01:12:08;10.20;99.90
9768;DHT22;4923;52.520;13.494;2024-02-23T01:14:55;10.10;99.90
9768;DHT22;4923;52.520;13.494;2024-02-23T01:17:42;10.10;99.90
9768;DHT22;4923;52.520;13.494;2024-02-23T01:20:30;10.10;99.90
9768;DHT22;4923;52.520;13.494;2024-02-23T01:23:17;10.10;99.90
9768;DHT22;4923;52.520;13.494;2024-02-23T01:26:04;10.20;99.90
9768;DHT22;4923;52.520;13.494;2024-02-23T01:28:51;10.20;99.90
9768;DHT22;4923;52.520;13.494;2024-02-23T01:31:38;10.20;99.90
9768;DHT22;4923;52.520;13.494;2024-02-23T01:34:25;10.30;99.90
9768;DHT22;4923;52.520;13.494;2024-02-23T01:37:13;10.40;99.90
9768;DHT22;4923;52.520;13.494;2024-02-23T01:40:00;10.40;99.90
9768;DHT22;4923;52.520;13.494;2024-02-23T01:42:47;10.60;99.90
9768;DHT22;4923;52.520;13.494;2024-02-23T01:45:34;10.60;99.90
9768;DHT22;4923;52.520;13.494;2024-02-23T01:48:21;10.70;99.90
9768;DHT22;4923;52.520;13.494;2024-02-23T01:51:08;10.70;99.90
9768;DHT22;4923;52.520;13.494;2024-02-23T01:53:56;10.80;99.90
9768;DHT22;4923;52.520;13.494;2024-02-23T01:56:43;10.80;99.90
9768;DHT22;4923;52.520;13.494;2024-02-23T01:59:30;10.80;99.90
9768;DHT22;4923;52.520;13.494;2024-02-23T02:02:17;10.90;99.90
9768;DHT22;4923;52.520;13.494;2024-02-23T02:05:05;10.90;99.90
9768;DHT22;4923;52.520;13.494;2024-02-23T02:07:54;10.90;99.90
9768;DHT22;4923;52.520;13.494;2024-02-23T02:10:46;10.90;99.90
9768;DHT22;4923;52.520;13.494;2024-02-23T02:13:33;10.90;99.90
9768;DHT22;4923;52.520;13.494;2024-02-23T02:16:20;11.00;99.90
9768;DHT22;4923;52.520;13.494;2024-02-23T02:19:06;11.00;99.90
9768;DHT22;4923;52.520;13.494;2024-02-23T02:21:53;11.00;99.90
9768;DHT22;4923;52.520;13.494;2024-02-23T02:24:40;11.00;99.90
9768;DHT22;4923;52.520;13.494;2024-02-23T02:27:30;11.00;99.90
9768;DHT22;4923;52.520;13.494;2024-02-23T02:30:17;11.10;99.90
9768;DHT22;4923;52.520;13.494;2024-02-23T02:33:05;11.00;99.90
9768;DHT22;4923;52.520;13.494;2024-02-23T02:35:52;10.90;99.90
9768;DHT22;4923;52.520;13.494;2024-02-23T02:38:39;10.90;99.90
9768;DHT22;4923;52.520;13.494;2024-02-23T02:41:28;10.90;99.90
9768;DHT22;4923;52.520;13.494;2024-02-23T02:44:17;10.90;99.90
9768;DHT22;4923;52.520;13.494;2024-02-23T02:47:04;10.70;99.90
9768;DHT22;4923;52.520;13.494;2024-02-23T02:49:51;10.70;99.90
9768;DHT22;4923;52.520;13.494;2024-02-23T02:52:38;10.60;99.90
9768;DHT22;4923;52.520;13.494;2024-02-23T02:55:25;10.60;99.90
9768;DHT22;4923;52.520;13.494;2024-02-23T02:58:12;10.50;99.90
9768;DHT22;4923;52.520;13.494;2024-02-23T03:01:00;10.50;99.90
9768;DHT22;4923;52.520;13.494;2024-02-23T03:03:47;10.40;99.90
9768;DHT22;4923;52.520;13.494;2024-02-23T03:06:34;10.30;99.90
9768;DHT22;4923;52.520;13.494;2024-02-23T03:09:21;10.30;99.90
9768;DHT22;4923;52.520;13.494;2024-02-23T03:12:08;10.20;99.90
9768;DHT22;4923;52.520;13.494;2024-02-23T03:14:55;10.20;99.90
9768;DHT22;4923;52.520;13.494;2024-02-23T03:17:43;10.30;99.90
9768;DHT22;4923;52.520;13.494;2024-02-23T03:20:30;10.20;99.90
9768;DHT22;4923;52.520;13.494;2024-02-23T03:23:17;10.10;99.90
9768;DHT22;4923;52.520;13.494;2024-02-23T03:26:06;10.10;99.90
9768;DHT22;4923;52.520;13.494;2024-02-23T03:28:53;10.00;99.90
9768;DHT22;4923;52.520;13.494;2024-02-23T03:31:40;9.90;99.90
9768;DHT22;4923;52.520;13.494;2024-02-23T03:34:28;10.00;99.90
9768;DHT22;4923;52.520;13.494;2024-02-23T03:37:15;9.80;99.90
9768;DHT22;4923;52.520;13.494;2024-02-23T03:40:02;9.70;99.90
9768;DHT22;4923;52.520;13.494;2024-02-23T03:42:50;9.70;99.90
9768;DHT22;4923;52.520;13.494;2024-02-23T03:45:37;9.70;99.90
9768;DHT22;4923;52.520;13.494;2024-02-23T03:48:24;9.60;99.90
9768;DHT22;4923;52.520;13.494;2024-02-23T03:51:12;9.60;99.90
9768;DHT22;4923;52.520;13.494;2024-02-23T03:53:59;9.60;99.90
9768;DHT22;4923;52.520;13.494;2024-02-23T03:56:46;9.60;99.90
9768;DHT22;4923;52.520;13.494;2024-02-23T03:59:36;9.50;99.90
9768;DHT22;4923;52.520;13.494;2024-02-23T04:02:23;9.50;99.90
9768;DHT22;4923;52.520;13.494;2024-02-23T04:05:10;9.50;99.90
9768;DHT22;4923;52.520;13.494;2024-02-23T04:07:58;9.40;99.90
9768;DHT22;4923;52.520;13.494;2024-02-23T04:10:45;9.30;99.90
9768;DHT22;4923;52.520;13.494;2024-02-23T04:13:32;9.30;99.90
9768;DHT22;4923;52.520;13.494;2024-02-23T04:16:22;9.30;99.90
9768;DHT22;4923;52.520;13.494;2024-02-23T04:19:10;9.20;99.90
9768;DHT22;4923;52.520;13.494;2024-02-23T04:21:57;9.10;99.90
9768;DHT22;4923;52.520;13.494;2024-02-23T04:24:45;9.10;99.90
9768;DHT22;4923;52.520;13.494;2024-02-23T04:27:32;9.00;99.90
9768;DHT22;4923;52.520;13.494;2024-02-23T04:30:19;9.00;99.90
9768;DHT22;4923;52.520;13.494;2024-02-23T04:33:06;9.10;99.90
9768;DHT22;4923;52.520;13.494;2024-02-23T04:35:53;9.10;99.90
9768;DHT22;4923;52.520;13.494;2024-02-23T04:38:40;9.10;99.90
9768;DHT22;4923;52.520;13.494;2024-02-23T04:41:28;9.10;99.90
9768;DHT22;4923;52.520;13.494;2024-02-23T04:44:15;9.10;99.90
9768;DHT22;4923;52.520;13.494;2024-02-23T04:47:02;9.00;99.90
9768;DHT22;4923;52.520;13.494;2024-02-23T04:49:49;9.00;99.90
9768;DHT22;4923;52.520;13.494;2024-02-23T04:52:36;9.10;99.90
9768;DHT22;4923;52.520;13.494;2024-02-23T04:55:23;9.20;99.90
9768;DHT22;4923;52.520;13.494;2024-02-23T04:58:11;9.20;99.90
9768;DHT22;4923;52.520;13.494;2024-02-23T05:00:58;9.20;99.90
9768;DHT22;4923;52.520;13.494;2024-02-23T05:03:45;9.20;99.90
9768;DHT22;4923;52.520;13.494;2024-02-23T05:06:32;9.20;99.90
9768;DHT22;4923;52.520;13.494;2024-02-23T05:09:18;9.20;99.90
9768;DHT22;4923;52.520;13.494;2024-02-23T05:12:06;9.10;99.90
9768;DHT22;4923;52.520;13.494;2024-02-23T05:14:55;9.00;99.90
9768;DHT22;4923;52.520;13.494;2024-02-23T05:17:42;9.00;99.90
9768;DHT22;4923;52.520;13.494;2024-02-23T05:20:29;9.10;99.90
9768;DHT22;4923;52.520;13.494;2024-02-23T05:23:15;9.10;99.90
9768;DHT22;4923;52.520;13.494;2024-02-23T05:26:03;9.00;99.90
9768;DHT22;4923;52.520;13.494;2024-02-23T05:28:50;8.90;99.90
9768;DHT22;4923;52.520;13.494;2024-02-23T05:31:47;8.90;99.90
9768;DHT22;4923;52.520;13.494;2024-02-23T05:34:34;8.70;99.90
9768;DHT22;4923;52.520;13.494;2024-02-23T05:37:22;8.70;99.90
9768;DHT22;4923;52.520;13.494;2024-02-23T05:40:10;8.80;99.90
9768;DHT22;4923;52.520;13.494;2024-02-23T05:42:57;8.70;99.90
9768;DHT22;4923;52.520;13.494;2024-02-23T05:45:44;8.50;99.90
9768;DHT22;4923;52.520;13.494;2024-02-23T05:48:32;8.50;99.90
9768;DHT22;4923;52.520;13.494;2024-02-23T05:51:19;8.40;99.90
9768;DHT22;4923;52.520;13.494;2024-02-23T05:54:06;8.30;99.90
9768;DHT22;4923;52.520;13.494;2024-02-23T05:56:53;8.20;99.90
9768;DHT22;4923;52.520;13.494;2024-02-23T05:59:40;8.10;99.90
9768;DHT22;4923;52.520;13.494;2024-02-23T06:02:27;8.00;99.90
9768;DHT22;4923;52.520;13.494;2024-02-23T06:05:15;7.90;99.90
9768;DHT22;4923;52.520;13.494;2024-02-23T06:08:02;7.80;99.90
9768;DHT22;4923;52.520;13.494;2024-02-23T06:10:49;7.80;99.90
9768;DHT22;4923;52.520;13.494;2024-02-23T06:13:36;7.80;99.90
9768;DHT22;4923;52.520;13.494;2024-02-23T06:16:23;7.80;99.90
9768;DHT22;4923;52.520;13.494;2024-02-23T06:19:10;7.80;99.90
9768;DHT22;4923;52.520;13.494;2024-02-23T06:21:58;7.70;99.90
9768;DHT22;4923;52.520;13.494;2024-02-23T06:24:45;7.60;99.90
9768;DHT22;4923;52.520;13.494;2024-02-23T06:27:32;7.70;99.90
9768;DHT22;4923;52.520;13.494;2024-02-23T06:30:19;7.70;99.90
9768;DHT22;4923;52.520;13.494;2024-02-23T06:33:06;7.70;99.90
9768;DHT22;4923;52.520;13.494;2024-02-23T06:35:54;7.70;99.90
9768;DHT22;4923;52.520;13.494;2024-02-23T06:38:42;7.70;99.90
9768;DHT22;4923;52.520;13.494;2024-02-23T06:41:29;7.70;99.90
9768;DHT22;4923;52.520;13.494;2024-02-23T06:44:17;7.60;99.90
9768;DHT22;4923;52.520;13.494;2024-02-23T06:47:04;7.60;99.90
9768;DHT22;4923;52.520;13.494;2024-02-23T06:49:52;7.70;99.90
9768;DHT22;4923;52.520;13.494;2024-02-23T06:52:39;7.80;99.90
9768;DHT22;4923;52.520;13.494;2024-02-23T06:55:27;7.80;99.90
9768;DHT22;4923;52.520;13.494;2024-02-23T06:58:14;7.80;99.90
9768;DHT22;4923;52.520;13.494;2024-02-23T07:01:02;7.90;99.90
9768;DHT22;4923;52.520;13.494;2024-02-23T07:03:51;7.90;99.90
9768;DHT22;4923;52.520;13.494;2024-02-23T07:06:38;8.00;99.90
9768;DHT22;4923;52.520;13.494;2024-02-23T07:09:25;7.90;99.90
9768;DHT22;4923;52.520;13.494;2024-02-23T07:12:13;7.90;99.90
9768;DHT22;4923;52.520;13.494;2024-02-23T07:15:00;8.00;99.90
9768;DHT22;4923;52.520;13.494;2024-02-23T07:17:47;8.00;99.90
9768;DHT22;4923;52.520;13.494;2024-02-23T07:20:35;8.10;99.90
9768;DHT22;4923;52.520;13.494;2024-02-23T07:23:22;8.10;99.90
9768;DHT22;4923;52.520;13.494;2024-02-23T07:26:09;8.20;99.90
9768;DHT22;4923;52.520;13.494;2024-02-23T07:28:57;8.20;99.90
9768;DHT22;4923;52.520;13.494;2024-02-23T07:31:44;8.20;99.90
9768;DHT22;4923;52.520;13.494;2024-02-23T07:34:31;8.30;99.90
9768;DHT22;4923;52.520;13.494;2024-02-23T07:37:18;8.30;99.90
9768;DHT22;4923;52.520;13.494;2024-02-23T07:40:06;8.40;99.90
9768;DHT22;4923;52.520;13.494;2024-02-23T07:42:53;8.40;99.90
9768;DHT22;4923;52.520;13.494;2024-02-23T07:45:41;8.40;99.90
9768;DHT22;4923;52.520;13.494;2024-02-23T07:48:29;8.40;99.90
9768;DHT22;4923;52.520;13.494;2024-02-23T07:51:16;8.40;99.90
9768;DHT22;4923;52.520;13.494;2024-02-23T07:54:03;8.50;99.90
9768;DHT22;4923;52.520;13.494;2024-02-23T07:56:51;8.50;99.90
9768;DHT22;4923;52.520;13.494;2024-02-23T07:59:37;8.60;99.90
9768;DHT22;4923;52.520;13.494;2024-02-23T08:02:26;8.60;99.90
9768;DHT22;4923;52.520;13.494;2024-02-23T08:05:13;8.70;99.90
9768;DHT22;4923;52.520;13.494;2024-02-23T08:08:00;8.70;99.90
9768;DHT22;4923;52.520;13.494;2024-02-23T08:10:46;8.80;99.90
9768;DHT22;4923;52.520;13.494;2024-02-23T08:13:33;9.30;99.90
9768;DHT22;4923;52.520;13.494;2024-02-23T08:16:20;9.40;99.90
9768;DHT22;4923;52.520;13.494;2024-02-23T08:19:08;9.70;99.90
9768;DHT22;4923;52.520;13.494;2024-02-23T08:21:55;9.70;99.90
9768;DHT22;4923;52.520;13.494;2024-02-23T08:24:43;9.80;99.90
9768;DHT22;4923;52.520;13.494;2024-02-23T08:27:30;9.80;99.90
9768;DHT22;4923;52.520;13.494;2024-02-23T08:30:17;9.80;99.90
9768;DHT22;4923;52.520;13.494;2024-02-23T08:33:05;9.80;99.90
9768;DHT22;4923;52.520;13.494;2024-02-23T08:35:56;9.80;99.90
9768;DHT22;4923;52.520;13.494;2024-02-23T08:38:43;9.70;99.90
9768;DHT22;4923;52.520;13.494;2024-02-23T08:41:30;9.70;99.90
9768;DHT22;4923;52.520;13.494;2024-02-23T08:44:17;9.80;99.90
9768;DHT22;4923;52.520;13.494;2024-02-23T08:47:04;9.80;99.90
9768;DHT22;4923;52.520;13.494;2024-02-23T08:49:51;9.90;99.90
9768;DHT22;4923;52.520;13.494;2024-02-23T08:52:39;9.90;99.90
9768;DHT22;4923;52.520;13.494;2024-02-23T08:55:25;10.00;99.90
9768;DHT22;4923;52.520;13.494;2024-02-23T08:58:13;9.80;99.90
9768;DHT22;4923;52.520;13.494;2024-02-23T09:01:00;9.90;99.90
9768;DHT22;4923;52.520;13.494;2024-02-23T09:03:46;10.00;99.90
9768;DHT22;4923;52.520;13.494;2024-02-23T09:06:34;10.20;99.90
9768;DHT22;4923;52.520;13.494;2024-02-23T09:09:22;10.30;99.90
9768;DHT22;4923;52.520;13.494;2024-02-23T09:12:09;10.30;99.90
9768;DHT22;4923;52.520;13.494;2024-02-23T09:14:56;10.40;99.90
9768;DHT22;4923;52.520;13.494;2024-02-23T09:17:43;10.60;99.90
9768;DHT22;4923;52.520;13.494;2024-02-23T09:20:30;10.50;99.90
9768;DHT22;4923;52.520;13.494;2024-02-23T09:23:17;10.40;99.90
9768;DHT22;4923;52.520;13.494;2024-02-23T09:26:10;10.60;99.90
9768;DHT22;4923;52.520;13.494;2024-02-23T09:28:57;10.50;99.90
9768;DHT22;4923;52.520;13.494;2024-02-23T09:31:44;10.50;99.90
9768;DHT22;4923;52.520;13.494;2024-02-23T09:34:31;10.60;99.90
9768;DHT22;4923;52.520;13.494;2024-02-23T09:37:18;10.60;99.90
9768;DHT22;4923;52.520;13.494;2024-02-23T09:40:06;10.60;99.90
9768;DHT22;4923;52.520;13.494;2024-02-23T09:42:55;10.60;99.90
9768;DHT22;4923;52.520;13.494;2024-02-23T09:45:43;10.70;99.90
9768;DHT22;4923;52.520;13.494;2024-02-23T09:48:31;10.80;99.90
9768;DHT22;4923;52.520;13.494;2024-02-23T09:51:19;10.80;99.90
9768;DHT22;4923;52.520;13.494;2024-02-23T09:54:07;10.90;99.90
9768;DHT22;4923;52.520;13.494;2024-02-23T09:56:54;10.90;99.90
9768;DHT22;4923;52.520;13.494;2024-02-23T09:59:42;10.90;99.90
9768;DHT22;4923;52.520;13.494;2024-02-23T10:02:29;10.80;99.90
9768;DHT22;4923;52.520;13.494;2024-02-23T10:05:17;10.80;99.90
9768;DHT22;4923;52.520;13.494;2024-02-23T10:08:04;10.80;99.90
9768;DHT22;4923;52.520;13.494;2024-02-23T10:10:51;10.70;99.90
9768;DHT22;4923;52.520;13.494;2024-02-23T10:13:38;10.80;99.90
9768;DHT22;4923;52.520;13.494;2024-02-23T10:16:26;11.00;99.90
9768;DHT22;4923;52.520;13.494;2024-02-23T10:19:13;11.00;99.90
9768;DHT22;4923;52.520;13.494;2024-02-23T10:22:00;11.00;99.90
9768;DHT22;4923;52.520;13.494;2024-02-23T10:24:47;11.00;99.90
9768;DHT22;4923;52.520;13.494;2024-02-23T10:27:34;10.90;99.90
9768;DHT22;4923;52.520;13.494;2024-02-23T10:30:21;11.00;99.90
9768;DHT22;4923;52.520;13.494;2024-02-23T10:33:10;11.10;99.90
9768;DHT22;4923;52.520;13.494;2024-02-23T10:36:00;11.20;99.90
9768;DHT22;4923;52.520;13.494;2024-02-23T10:38:48;11.60;99.90
9768;DHT22;4923;52.520;13.494;2024-02-23T10:41:36;11.80;99.90
9768;DHT22;4923;52.520;13.494;2024-02-23T10:44:24;11.90;99.90
9768;DHT22;4923;52.520;13.494;2024-02-23T10:47:11;11.80;99.90
9768;DHT22;4923;52.520;13.494;2024-02-23T10:50:01;12.00;99.90
9768;DHT22;4923;52.520;13.494;2024-02-23T10:52:49;11.90;99.90
9768;DHT22;4923;52.520;13.494;2024-02-23T10:55:37;12.00;99.90
9768;DHT22;4923;52.520;13.494;2024-02-23T10:58:24;11.90;99.90
9768;DHT22;4923;52.520;13.494;2024-02-23T11:01:13;11.70;99.90
9768;DHT22;4923;52.520;13.494;2024-02-23T11:04:02;11.80;99.90
9768;DHT22;4923;52.520;13.494;2024-02-23T11:06:50;11.90;99.90
9768;DHT22;4923;52.520;13.494;2024-02-23T11:09:37;11.70;99.90
9768;DHT22;4923;52.520;13.494;2024-02-23T11:12:25;11.70;99.90
9768;DHT22;4923;52.520;13.494;2024-02-23T11:15:26;11.70;99.90
9768;DHT22;4923;52.520;13.494;2024-02-23T11:18:22;11.80;99.90
9768;DHT22;4923;52.520;13.494;2024-02-23T11:21:10;11.70;99.90
9768;DHT22;4923;52.520;13.494;2024-02-23T11:24:02;11.60;99.90
9768;DHT22;4923;52.520;13.494;2024-02-23T11:26:50;11.70;99.90
9768;DHT22;4923;52.520;13.494;2024-02-23T11:29:42;11.80;99.90
9768;DHT22;4923;52.520;13.494;2024-02-23T11:32:37;11.80;99.90
9768;DHT22;4923;52.520;13.494;2024-02-23T11:35:25;11.80;99.90
9768;DHT22;4923;52.520;13.494;2024-02-23T11:38:13;11.90;99.90
9768;DHT22;4923;52.520;13.494;2024-02-23T11:41:03;11.80;99.90
9768;DHT22;4923;52.520;13.494;2024-02-23T11:43:52;11.80;99.90
9768;DHT22;4923;52.520;13.494;2024-02-23T11:46:39;11.60;99.90
9768;DHT22;4923;52.520;13.494;2024-02-23T11:49:29;11.50;99.90
9768;DHT22;4923;52.520;13.494;2024-02-23T11:52:16;11.70;99.90
9768;DHT22;4923;52.520;13.494;2024-02-23T11:55:03;11.90;99.90
9768;DHT22;4923;52.520;13.494;2024-02-23T11:57:52;12.00;99.90
9768;DHT22;4923;52.520;13.494;2024-02-23T12:00:39;11.90;99.90
9768;DHT22;4923;52.520;13.494;2024-02-23T12:03:26;12.00;99.90
9768;DHT22;4923;52.520;13.494;2024-02-23T12:06:14;11.90;99.90
9768;DHT22;4923;52.520;13.494;2024-02-23T12:09:03;11.90;99.90
9768;DHT22;4923;52.520;13.494;2024-02-23T12:11:50;11.90;99.90
9768;DHT22;4923;52.520;13.494;2024-02-23T12:14:39;12.00;99.90
9768;DHT22;4923;52.520;13.494;2024-02-23T12:17:26;12.00;99.90
9768;DHT22;4923;52.520;13.494;2024-02-23T12:20:13;12.00;99.90
9768;DHT22;4923;52.520;13.494;2024-02-23T12:23:01;12.10;99.90
9768;DHT22;4923;52.520;13.494;2024-02-23T12:25:57;12.30;99.90
9768;DHT22;4923;52.520;13.494;2024-02-23T12:28:45;11.90;99.90
9768;DHT22;4923;52.520;13.494;2024-02-23T12:31:33;11.90;99.90
9768;DHT22;4923;52.520;13.494;2024-02-23T12:34:20;12.00;99.90
9768;DHT22;4923;52.520;13.494;2024-02-23T12:37:07;11.90;99.90
9768;DHT22;4923;52.520;13.494;2024-02-23T12:39:54;11.90;99.90
9768;DHT22;4923;52.520;13.494;2024-02-23T12:42:41;11.80;99.90
9768;DHT22;4923;52.520;13.494;2024-02-23T12:45:28;11.90;99.90
9768;DHT22;4923;52.520;13.494;2024-02-23T12:48:16;11.90;99.90
9768;DHT22;4923;52.520;13.494;2024-02-23T12:51:04;12.00;99.90
9768;DHT22;4923;52.520;13.494;2024-02-23T12:53:51;12.10;99.90
9768;DHT22;4923;52.520;13.494;2024-02-23T12:56:38;12.00;99.90
9768;DHT22;4923;52.520;13.494;2024-02-23T12:59:25;12.10;99.90
9768;DHT22;4923;52.520;13.494;2024-02-23T13:02:12;12.10;99.90
9768;DHT22;4923;52.520;13.494;2024-02-23T13:05:00;11.90;99.90
9768;DHT22;4923;52.520;13.494;2024-02-23T13:07:47;11.60;99.90
9768;DHT22;4923;52.520;13.494;2024-02-23T13:10:34;11.50;99.90
9768;DHT22;4923;52.520;13.494;2024-02-23T13:13:22;11.60;99.90
9768;DHT22;4923;52.520;13.494;2024-02-23T13:16:09;11.60;99.90
9768;DHT22;4923;52.520;13.494;2024-02-23T13:18:56;11.50;99.90
9768;DHT22;4923;52.520;13.494;2024-02-23T13:21:44;11.50;99.90
9768;DHT22;4923;52.520;13.494;2024-02-23T13:24:31;11.40;99.90
9768;DHT22;4923;52.520;13.494;2024-02-23T13:27:18;11.40;99.90
9768;DHT22;4923;52.520;13.494;2024-02-23T13:30:06;11.40;99.90
9768;DHT22;4923;52.520;13.494;2024-02-23T13:32:53;11.30;99.90
9768;DHT22;4923;52.520;13.494;2024-02-23T13:35:41;11.40;99.90
9768;DHT22;4923;52.520;13.494;2024-02-23T13:38:30;11.40;99.90
9768;DHT22;4923;52.520;13.494;2024-02-23T13:41:17;11.20;99.90
9768;DHT22;4923;52.520;13.494;2024-02-23T13:44:04;11.10;99.90
9768;DHT22;4923;52.520;13.494;2024-02-23T13:46:51;11.20;99.90
9768;DHT22;4923;52.520;13.494;2024-02-23T13:49:38;11.20;99.90
9768;DHT22;4923;52.520;13.494;2024-02-23T13:52:25;11.20;99.90
9768;DHT22;4923;52.520;13.494;2024-02-23T13:55:13;11.10;99.90
9768;DHT22;4923;52.520;13.494;2024-02-23T13:58:01;11.00;99.90
9768;DHT22;4923;52.520;13.494;2024-02-23T14:00:47;11.00;99.90
9768;DHT22;4923;52.520;13.494;2024-02-23T14:03:34;11.00;99.90
9768;DHT22;4923;52.520;13.494;2024-02-23T14:06:22;11.00;99.90
9768;DHT22;4923;52.520;13.494;2024-02-23T14:09:09;11.00;99.90
9768;DHT22;4923;52.520;13.494;2024-02-23T14:11:58;10.90;99.90
9768;DHT22;4923;52.520;13.494;2024-02-23T14:14:44;10.90;99.90
9768;DHT22;4923;52.520;13.494;2024-02-23T14:17:31;10.90;99.90
9768;DHT22;4923;52.520;13.494;2024-02-23T14:20:19;10.90;99.90
9768;DHT22;4923;52.520;13.494;2024-02-23T14:23:06;10.90;99.90
9768;DHT22;4923;52.520;13.494;2024-02-23T14:25:53;10.80;99.90
9768;DHT22;4923;52.520;13.494;2024-02-23T14:28:41;10.70;99.90
9768;DHT22;4923;52.520;13.494;2024-02-23T14:31:28;10.50;99.90
9768;DHT22;4923;52.520;13.494;2024-02-23T14:34:15;10.30;99.90
9768;DHT22;4923;52.520;13.494;2024-02-23T14:37:02;10.30;99.90
9768;DHT22;4923;52.520;13.494;2024-02-23T14:39:49;10.30;99.90
9768;DHT22;4923;52.520;13.494;2024-02-23T14:42:36;10.20;99.90
9768;DHT22;4923;52.520;13.494;2024-02-23T14:45:25;10.20;99.90
9768;DHT22;4923;52.520;13.494;2024-02-23T14:48:13;10.20;99.90
9768;DHT22;4923;52.520;13.494;2024-02-23T14:51:00;10.10;99.90
9768;DHT22;4923;52.520;13.494;2024-02-23T14:53:49;10.10;99.90
9768;DHT22;4923;52.520;13.494;2024-02-23T14:56:36;10.00;99.90
9768;DHT22;4923;52.520;13.494;2024-02-23T14:59:23;10.00;99.90
9768;DHT22;4923;52.520;13.494;2024-02-23T15:02:13;10.00;99.90
9768;DHT22;4923;52.520;13.494;2024-02-23T15:05:05;9.90;99.90
9768;DHT22;4923;52.520;13.494;2024-02-23T15:07:52;9.80;99.90
9768;DHT22;4923;52.520;13.494;2024-02-23T15:10:40;9.80;99.90
9768;DHT22;4923;52.520;13.494;2024-02-23T15:13:27;9.80;99.90
9768;DHT22;4923;52.520;13.494;2024-02-23T15:16:14;9.80;99.90
9768;DHT22;4923;52.520;13.494;2024-02-23T15:19:02;9.80;99.90
9768;DHT22;4923;52.520;13.494;2024-02-23T15:21:49;9.90;99.90
9768;DHT22;4923;52.520;13.494;2024-02-23T15:24:38;9.80;99.90
9768;DHT22;4923;52.520;13.494;2024-02-23T15:27:27;9.70;99.90
9768;DHT22;4923;52.520;13.494;2024-02-23T15:30:15;9.60;99.90
9768;DHT22;4923;52.520;13.494;2024-02-23T15:33:02;9.60;99.90
9768;DHT22;4923;52.520;13.494;2024-02-23T15:35:50;9.50;99.90
9768;DHT22;4923;52.520;13.494;2024-02-23T15:38:37;9.50;99.90
9768;DHT22;4923;52.520;13.494;2024-02-23T15:41:24;9.30;99.90
9768;DHT22;4923;52.520;13.494;2024-02-23T15:44:11;9.20;99.90
9768;DHT22;4923;52.520;13.494;2024-02-23T15:46:58;9.10;99.90
9768;DHT22;4923;52.520;13.494;2024-02-23T15:49:45;9.20;99.90
9768;DHT22;4923;52.520;13.494;2024-02-23T15:52:33;9.10;99.90
9768;DHT22;4923;52.520;13.494;2024-02-23T15:55:20;9.60;99.90
9768;DHT22;4923;52.520;13.494;2024-02-23T15:58:07;9.40;99.90
9768;DHT22;4923;52.520;13.494;2024-02-23T16:00:54;9.30;99.90
9768;DHT22;4923;52.520;13.494;2024-02-23T16:03:42;9.10;99.90
9768;DHT22;4923;52.520;13.494;2024-02-23T16:06:29;9.00;99.90
9768;DHT22;4923;52.520;13.494;2024-02-23T16:09:20;8.80;99.90
9768;DHT22;4923;52.520;13.494;2024-02-23T16:12:07;8.70;99.90
9768;DHT22;4923;52.520;13.494;2024-02-23T16:14:56;8.60;99.90
9768;DHT22;4923;52.520;13.494;2024-02-23T16:17:43;8.50;99.90
9768;DHT22;4923;52.520;13.494;2024-02-23T16:20:29;8.40;99.90
9768;DHT22;4923;52.520;13.494;2024-02-23T16:23:17;8.30;99.90
9768;DHT22;4923;52.520;13.494;2024-02-23T16:26:05;8.20;99.90
9768;DHT22;4923;52.520;13.494;2024-02-23T16:28:52;8.10;99.90
9768;DHT22;4923;52.520;13.494;2024-02-23T16:31:39;8.00;99.90
9768;DHT22;4923;52.520;13.494;2024-02-23T16:34:26;8.00;99.90
9768;DHT22;4923;52.520;13.494;2024-02-23T16:37:14;7.90;99.90
9768;DHT22;4923;52.520;13.494;2024-02-23T16:40:01;7.90;99.90
9768;DHT22;4923;52.520;13.494;2024-02-23T16:42:49;7.80;99.90
9768;DHT22;4923;52.520;13.494;2024-02-23T16:45:36;7.70;99.90
9768;DHT22;4923;52.520;13.494;2024-02-23T16:48:23;7.50;99.90
9768;DHT22;4923;52.520;13.494;2024-02-23T16:51:10;7.50;99.90
9768;DHT22;4923;52.520;13.494;2024-02-23T16:53:57;7.40;99.90
9768;DHT22;4923;52.520;13.494;2024-02-23T16:56:44;7.40;99.90
9768;DHT22;4923;52.520;13.494;2024-02-23T16:59:32;7.30;99.90
9768;DHT22;4923;52.520;13.494;2024-02-23T17:02:19;7.20;99.90
9768;DHT22;4923;52.520;13.494;2024-02-23T17:05:06;7.20;99.90
9768;DHT22;4923;52.520;13.494;2024-02-23T17:07:54;7.10;99.90
9768;DHT22;4923;52.520;13.494;2024-02-23T17:10:41;7.10;99.90
9768;DHT22;4923;52.520;13.494;2024-02-23T17:13:28;7.10;99.90
9768;DHT22;4923;52.520;13.494;2024-02-23T17:16:16;7.00;99.90
9768;DHT22;4923;52.520;13.494;2024-02-23T17:19:04;7.00;99.90
9768;DHT22;4923;52.520;13.494;2024-02-23T17:21:51;7.10;99.90
9768;DHT22;4923;52.520;13.494;2024-02-23T17:24:38;7.10;99.90
9768;DHT22;4923;52.520;13.494;2024-02-23T17:27:25;7.10;99.90
9768;DHT22;4923;52.520;13.494;2024-02-23T17:30:13;7.10;99.90
9768;DHT22;4923;52.520;13.494;2024-02-23T17:33:01;7.10;99.90
9768;DHT22;4923;52.520;13.494;2024-02-23T17:35:48;7.10;99.90
9768;DHT22;4923;52.520;13.494;2024-02-23T17:38:35;7.10;99.90
9768;DHT22;4923;52.520;13.494;2024-02-23T17:41:22;7.10;99.90
9768;DHT22;4923;52.520;13.494;2024-02-23T17:44:09;7.00;99.90
9768;DHT22;4923;52.520;13.494;2024-02-23T17:46:56;7.00;99.90
9768;DHT22;4923;52.520;13.494;2024-02-23T17:49:44;7.00;99.90
9768;DHT22;4923;52.520;13.494;2024-02-23T17:52:32;7.00;99.90
9768;DHT22;4923;52.520;13.494;2024-02-23T17:55:19;6.90;99.90
9768;DHT22;4923;52.520;13.494;2024-02-23T17:58:06;6.90;99.90
9768;DHT22;4923;52.520;13.494;2024-02-23T18:00:53;6.80;99.90
9768;DHT22;4923;52.520;13.494;2024-02-23T18:03:40;6.80;99.90